sensor_id;sensor_type;location;lat;lon;timestamp;temperature;humidity
3466;DHT22;1747;48.884;9.160;2024-02-14T00:02:22;4.80;99.90
3466;DHT22;1747;48.884;9.160;2024-02-14T00:04:51;4.80;99.90
3466;DHT22;1747;48.884;9.160;2024-02-14T00:07:20;4.70;99.90
3466;DHT22;1747;48.884;9.160;2024-02-14T00:09:47;4.70;99.90
3466;DHT22;1747;48.884;9.160;2024-02-14T00:12:14;4.70;99.90
3466;DHT22;1747;48.884;9.160;2024-02-14T00:14:40;4.70;99.90
3466;DHT22;1747;48.884;9.160;2024-02-14T00:17:08;4.70;99.90
3466;DHT22;1747;48.884;9.160;2024-02-14T00:19:36;4.60;99.90
3466;DHT22;1747;48.884;9.160;2024-02-14T00:22:03;4.60;99.90
3466;DHT22;1747;48.884;9.160;2024-02-14T00:24:31;4.50;99.90
3466;DHT22;1747;48.884;9.160;2024-02-14T00:26:58;4.50;99.90
3466;DHT22;1747;48.884;9.160;2024-02-14T00:29:26;4.60;99.90
3466;DHT22;1747;48.884;9.160;2024-02-14T00:31:53;4.50;99.90
3466;DHT22;1747;48.884;9.160;2024-02-14T00:34:19;4.50;99.90
3466;DHT22;1747;48.884;9.160;2024-02-14T00:36:46;4.60;99.90
3466;DHT22;1747;48.884;9.160;2024-02-14T00:39:13;4.60;99.90
3466;DHT22;1747;48.884;9.160;2024-02-14T00:41:41;4.70;99.90
3466;DHT22;1747;48.884;9.160;2024-02-14T00:44:08;4.70;99.90
3466;DHT22;1747;48.884;9.160;2024-02-14T00:46:35;4.80;99.90
3466;DHT22;1747;48.884;9.160;2024-02-14T00:49:02;4.80;99.90
3466;DHT22;1747;48.884;9.160;2024-02-14T00:51:28;4.80;99.90
3466;DHT22;1747;48.884;9.160;2024-02-14T00:53:55;4.90;99.90
3466;DHT22;1747;48.884;9.160;2024-02-14T00:56:22;4.90;99.90
3466;DHT22;1747;48.884;9.160;2024-02-14T00:58:51;5.00;99.90
3466;DHT22;1747;48.884;9.160;2024-02-14T01:01:18;5.00;99.90
3466;DHT22;1747;48.884;9.160;2024-02-14T01:03:44;4.90;99.90
3466;DHT22;1747;48.884;9.160;2024-02-14T01:06:11;4.90;99.90
3466;DHT22;1747;48.884;9.160;2024-02-14T01:08:39;4.90;99.90
3466;DHT22;1747;48.884;9.160;2024-02-14T01:11:07;5.00;99.90
3466;DHT22;1747;48.884;9.160;2024-02-14T01:13:33;5.00;99.90
3466;DHT22;1747;48.884;9.160;2024-02-14T01:16:02;5.10;99.90
3466;DHT22;1747;48.884;9.160;2024-02-14T01:18:29;5.10;99.90
3466;DHT22;1747;48.884;9.160;2024-02-14T01:20:56;5.20;99.90
3466;DHT22;1747;48.884;9.160;2024-02-14T01:23:24;5.20;99.90
3466;DHT22;1747;48.884;9.160;2024-02-14T01:25:51;5.30;99.90
3466;DHT22;1747;48.884;9.160;2024-02-14T01:28:20;5.30;99.90
3466;DHT22;1747;48.884;9.160;2024-02-14T01:30:46;5.40;99.90
3466;DHT22;1747;48.884;9.160;2024-02-14T01:33:14;5.40;99.90
3466;DHT22;1747;48.884;9.160;2024-02-14T01:35:42;5.50;99.90
3466;DHT22;1747;48.884;9.160;2024-02-14T01:38:09;5.50;99.90
3466;DHT22;1747;48.884;9.160;2024-02-14T01:40:37;5.50;99.90
3466;DHT22;1747;48.884;9.160;2024-02-14T01:43:04;5.50;99.90
3466;DHT22;1747;48.884;9.160;2024-02-14T01:45:31;5.50;99.90
3466;DHT22;1747;48.884;9.160;2024-02-14T01:47:57;5.50;99.90
3466;DHT22;1747;48.884;9.160;2024-02-14T01:50:26;5.60;99.90
3466;DHT22;1747;48.884;9.160;2024-02-14T01:52:56;5.50;99.90
3466;DHT22;1747;48.884;9.160;2024-02-14T01:55:25;5.50;99.90
3466;DHT22;1747;48.884;9.160;2024-02-14T01:57:53;5.50;99.90
3466;DHT22;1747;48.884;9.160;2024-02-14T02:00:20;5.50;99.90
3466;DHT22;1747;48.884;9.160;2024-02-14T02:02:48;5.60;99.90
3466;DHT22;1747;48.884;9.160;2024-02-14T02:05:15;5.60;99.90
3466;DHT22;1747;48.884;9.160;2024-02-14T02:07:43;5.60;99.90
3466;DHT22;1747;48.884;9.160;2024-02-14T02:10:13;5.60;99.90
3466;DHT22;1747;48.884;9.160;2024-02-14T02:12:40;5.70;99.90
3466;DHT22;1747;48.884;9.160;2024-02-14T02:15:08;5.70;99.90
3466;DHT22;1747;48.884;9.160;2024-02-14T02:17:36;5.70;99.90
3466;DHT22;1747;48.884;9.160;2024-02-14T02:20:04;5.70;99.90
3466;DHT22;1747;48.884;9.160;2024-02-14T02:22:32;5.80;99.90
3466;DHT22;1747;48.884;9.160;2024-02-14T02:25:02;5.70;99.90
3466;DHT22;1747;48.884;9.160;2024-02-14T02:27:32;5.80;99.90
3466;DHT22;1747;48.884;9.160;2024-02-14T02:30:00;5.80;99.90
3466;DHT22;1747;48.884;9.160;2024-02-14T02:32:29;5.90;99.90
3466;DHT22;1747;48.884;9.160;2024-02-14T02:34:56;5.90;99.90
3466;DHT22;1747;48.884;9.160;2024-02-14T02:37:23;5.90;99.90
3466;DHT22;1747;48.884;9.160;2024-02-14T02:39:50;5.90;99.90
3466;DHT22;1747;48.884;9.160;2024-02-14T02:42:19;5.90;99.90
3466;DHT22;1747;48.884;9.160;2024-02-14T02:44:46;5.90;99.90
3466;DHT22;1747;48.884;9.160;2024-02-14T02:47:14;5.90;99.90
3466;DHT22;1747;48.884;9.160;2024-02-14T02:49:42;5.80;99.90
3466;DHT22;1747;48.884;9.160;2024-02-14T02:52:10;5.80;99.90
3466;DHT22;1747;48.884;9.160;2024-02-14T02:54:36;5.80;99.90
3466;DHT22;1747;48.884;9.160;2024-02-14T02:57:06;5.80;99.90
3466;DHT22;1747;48.884;9.160;2024-02-14T02:59:35;5.80;99.90
3466;DHT22;1747;48.884;9.160;2024-02-14T03:02:02;5.90;99.90
3466;DHT22;1747;48.884;9.160;2024-02-14T03:04:29;5.80;99.90
3466;DHT22;1747;48.884;9.160;2024-02-14T03:06:57;5.80;99.90
3466;DHT22;1747;48.884;9.160;2024-02-14T03:09:25;5.70;99.90
3466;DHT22;1747;48.884;9.160;2024-02-14T03:11:51;5.60;99.90
3466;DHT22;1747;48.884;9.160;2024-02-14T03:14:22;5.50;99.90
3466;DHT22;1747;48.884;9.160;2024-02-14T03:16:50;5.50;99.90
3466;DHT22;1747;48.884;9.160;2024-02-14T03:19:17;5.60;99.90
3466;DHT22;1747;48.884;9.160;2024-02-14T03:21:44;5.50;99.90
3466;DHT22;1747;48.884;9.160;2024-02-14T03:24:12;5.60;99.90
3466;DHT22;1747;48.884;9.160;2024-02-14T03:26:40;5.50;99.90
3466;DHT22;1747;48.884;9.160;2024-02-14T03:29:07;5.40;99.90
3466;DHT22;1747;48.884;9.160;2024-02-14T03:31:34;5.40;99.90
3466;DHT22;1747;48.884;9.160;2024-02-14T03:34:02;5.40;99.90
3466;DHT22;1747;48.884;9.160;2024-02-14T03:36:30;5.40;99.90
3466;DHT22;1747;48.884;9.160;2024-02-14T03:38:58;5.40;99.90
3466;DHT22;1747;48.884;9.160;2024-02-14T03:41:26;5.40;99.90
3466;DHT22;1747;48.884;9.160;2024-02-14T03:43:53;5.40;99.90
3466;DHT22;1747;48.884;9.160;2024-02-14T03:46:23;5.30;99.90
3466;DHT22;1747;48.884;9.160;2024-02-14T03:48:50;5.30;99.90
3466;DHT22;1747;48.884;9.160;2024-02-14T03:51:18;5.30;99.90
3466;DHT22;1747;48.884;9.160;2024-02-14T03:53:46;5.10;99.90
3466;DHT22;1747;48.884;9.160;2024-02-14T03:56:13;5.10;99.90
3466;DHT22;1747;48.884;9.160;2024-02-14T03:58:41;5.10;99.90
3466;DHT22;1747;48.884;9.160;2024-02-14T04:01:08;5.30;99.90
3466;DHT22;1747;48.884;9.160;2024-02-14T04:03:35;5.30;99.90
3466;DHT22;1747;48.884;9.160;2024-02-14T04:06:02;5.40;99.90
3466;DHT22;1747;48.884;9.160;2024-02-14T04:08:31;5.50;99.90
3466;DHT22;1747;48.884;9.160;2024-02-14T04:10:58;5.50;99.90
3466;DHT22;1747;48.884;9.160;2024-02-14T04:13:25;5.50;99.90
3466;DHT22;1747;48.884;9.160;2024-02-14T04:15:52;5.60;99.90
3466;DHT22;1747;48.884;9.160;2024-02-14T04:18:19;5.70;99.90
3466;DHT22;1747;48.884;9.160;2024-02-14T04:20:46;5.70;99.90
3466;DHT22;1747;48.884;9.160;2024-02-14T04:23:13;5.80;99.90
3466;DHT22;1747;48.884;9.160;2024-02-14T04:25:41;5.90;99.90
3466;DHT22;1747;48.884;9.160;2024-02-14T04:28:08;5.90;99.90
3466;DHT22;1747;48.884;9.160;2024-02-14T04:30:37;6.00;99.90
3466;DHT22;1747;48.884;9.160;2024-02-14T04:33:04;5.90;99.90
3466;DHT22;1747;48.884;9.160;2024-02-14T04:35:31;5.90;99.90
3466;DHT22;1747;48.884;9.160;2024-02-14T04:37:59;6.00;99.90
3466;DHT22;1747;48.884;9.160;2024-02-14T04:40:26;6.20;99.90
3466;DHT22;1747;48.884;9.160;2024-02-14T04:42:54;6.40;99.90
3466;DHT22;1747;48.884;9.160;2024-02-14T04:45:21;6.70;99.90
3466;DHT22;1747;48.884;9.160;2024-02-14T04:47:48;6.80;99.90
3466;DHT22;1747;48.884;9.160;2024-02-14T04:50:15;6.90;99.90
3466;DHT22;1747;48.884;9.160;2024-02-14T04:52:42;7.00;99.90
3466;DHT22;1747;48.884;9.160;2024-02-14T04:55:09;7.10;99.90
3466;DHT22;1747;48.884;9.160;2024-02-14T04:57:36;7.10;99.90
3466;DHT22;1747;48.884;9.160;2024-02-14T05:00:06;7.10;99.90
3466;DHT22;1747;48.884;9.160;2024-02-14T05:02:34;7.20;99.90
3466;DHT22;1747;48.884;9.160;2024-02-14T05:05:02;7.10;99.90
3466;DHT22;1747;48.884;9.160;2024-02-14T05:07:29;7.20;99.90
3466;DHT22;1747;48.884;9.160;2024-02-14T05:09:55;7.20;99.90
3466;DHT22;1747;48.884;9.160;2024-02-14T05:12:22;7.10;99.90
3466;DHT22;1747;48.884;9.160;2024-02-14T05:14:49;7.10;99.90
3466;DHT22;1747;48.884;9.160;2024-02-14T05:17:17;7.00;99.90
3466;DHT22;1747;48.884;9.160;2024-02-14T05:19:44;6.90;99.90
3466;DHT22;1747;48.884;9.160;2024-02-14T05:22:11;6.70;99.90
3466;DHT22;1747;48.884;9.160;2024-02-14T05:24:38;6.70;99.90
3466;DHT22;1747;48.884;9.160;2024-02-14T05:27:05;6.70;99.90
3466;DHT22;1747;48.884;9.160;2024-02-14T05:29:32;6.70;99.90
3466;DHT22;1747;48.884;9.160;2024-02-14T05:31:58;6.80;99.90
3466;DHT22;1747;48.884;9.160;2024-02-14T05:34:27;6.80;99.90
3466;DHT22;1747;48.884;9.160;2024-02-14T05:36:53;6.70;99.90
3466;DHT22;1747;48.884;9.160;2024-02-14T05:39:20;6.70;99.90
3466;DHT22;1747;48.884;9.160;2024-02-14T05:41:47;6.60;99.90
3466;DHT22;1747;48.884;9.160;2024-02-14T05:44:15;6.60;99.90
3466;DHT22;1747;48.884;9.160;2024-02-14T05:46:42;6.80;99.90
3466;DHT22;1747;48.884;9.160;2024-02-14T05:49:09;6.80;99.90
3466;DHT22;1747;48.884;9.160;2024-02-14T05:51:37;6.90;99.90
3466;DHT22;1747;48.884;9.160;2024-02-14T05:54:04;6.80;99.90
3466;DHT22;1747;48.884;9.160;2024-02-14T05:56:31;6.80;99.90
3466;DHT22;1747;48.884;9.160;2024-02-14T05:58:58;6.80;99.90
3466;DHT22;1747;48.884;9.160;2024-02-14T06:01:25;6.80;99.90
3466;DHT22;1747;48.884;9.160;2024-02-14T06:03:51;6.70;99.90
3466;DHT22;1747;48.884;9.160;2024-02-14T06:06:18;6.70;99.90
3466;DHT22;1747;48.884;9.160;2024-02-14T06:08:46;6.70;99.90
3466;DHT22;1747;48.884;9.160;2024-02-14T06:11:13;6.70;99.90
3466;DHT22;1747;48.884;9.160;2024-02-14T06:13:41;6.70;99.90
3466;DHT22;1747;48.884;9.160;2024-02-14T06:16:08;6.70;99.90
3466;DHT22;1747;48.884;9.160;2024-02-14T06:18:37;6.70;99.90
3466;DHT22;1747;48.884;9.160;2024-02-14T06:21:05;6.60;99.90
3466;DHT22;1747;48.884;9.160;2024-02-14T06:23:32;6.60;99.90
3466;DHT22;1747;48.884;9.160;2024-02-14T06:26:00;6.40;99.90
3466;DHT22;1747;48.884;9.160;2024-02-14T06:28:27;6.30;99.90
3466;DHT22;1747;48.884;9.160;2024-02-14T06:30:54;6.30;99.90
3466;DHT22;1747;48.884;9.160;2024-02-14T06:33:21;6.20;99.90
3466;DHT22;1747;48.884;9.160;2024-02-14T06:35:48;6.20;99.90
3466;DHT22;1747;48.884;9.160;2024-02-14T06:38:15;6.20;99.90
3466;DHT22;1747;48.884;9.160;2024-02-14T06:40:42;6.20;99.90
3466;DHT22;1747;48.884;9.160;2024-02-14T06:43:11;6.10;99.90
3466;DHT22;1747;48.884;9.160;2024-02-14T06:45:38;6.10;99.90
3466;DHT22;1747;48.884;9.160;2024-02-14T06:48:05;6.20;99.90
3466;DHT22;1747;48.884;9.160;2024-02-14T06:50:33;6.30;99.90
3466;DHT22;1747;48.884;9.160;2024-02-14T06:53:00;6.40;99.90
3466;DHT22;1747;48.884;9.160;2024-02-14T06:55:27;6.40;99.90
3466;DHT22;1747;48.884;9.160;2024-02-14T06:57:55;6.50;99.90
3466;DHT22;1747;48.884;9.160;2024-02-14T07:00:24;6.60;99.90
3466;DHT22;1747;48.884;9.160;2024-02-14T07:02:51;6.70;99.90
3466;DHT22;1747;48.884;9.160;2024-02-14T07:05:18;6.80;99.90
3466;DHT22;1747;48.884;9.160;2024-02-14T07:07:45;6.90;99.90
3466;DHT22;1747;48.884;9.160;2024-02-14T07:10:12;6.90;99.90
3466;DHT22;1747;48.884;9.160;2024-02-14T07:12:39;6.90;99.90
3466;DHT22;1747;48.884;9.160;2024-02-14T07:15:06;6.70;99.90
3466;DHT22;1747;48.884;9.160;2024-02-14T07:17:35;6.70;99.90
3466;DHT22;1747;48.884;9.160;2024-02-14T07:20:02;6.60;99.90
3466;DHT22;1747;48.884;9.160;2024-02-14T07:22:29;6.50;99.90
3466;DHT22;1747;48.884;9.160;2024-02-14T07:24:56;6.40;99.90
3466;DHT22;1747;48.884;9.160;2024-02-14T07:27:23;6.40;99.90
3466;DHT22;1747;48.884;9.160;2024-02-14T07:29:50;6.40;99.90
3466;DHT22;1747;48.884;9.160;2024-02-14T07:32:17;6.50;99.90
3466;DHT22;1747;48.884;9.160;2024-02-14T07:34:45;6.50;99.90
3466;DHT22;1747;48.884;9.160;2024-02-14T07:37:12;6.70;99.90
3466;DHT22;1747;48.884;9.160;2024-02-14T07:39:40;6.80;99.90
3466;DHT22;1747;48.884;9.160;2024-02-14T07:42:07;7.10;99.90
3466;DHT22;1747;48.884;9.160;2024-02-14T07:44:35;7.40;99.90
3466;DHT22;1747;48.884;9.160;2024-02-14T07:47:02;7.70;99.90
3466;DHT22;1747;48.884;9.160;2024-02-14T07:49:29;7.90;99.90
3466;DHT22;1747;48.884;9.160;2024-02-14T07:51:57;8.10;99.90
3466;DHT22;1747;48.884;9.160;2024-02-14T07:54:25;8.30;99.90
3466;DHT22;1747;48.884;9.160;2024-02-14T07:56:55;8.50;99.90
3466;DHT22;1747;48.884;9.160;2024-02-14T07:59:31;8.60;99.90
3466;DHT22;1747;48.884;9.160;2024-02-14T08:02:16;8.80;99.90
3466;DHT22;1747;48.884;9.160;2024-02-14T08:04:43;8.80;99.90
3466;DHT22;1747;48.884;9.160;2024-02-14T08:07:12;8.90;99.90
3466;DHT22;1747;48.884;9.160;2024-02-14T08:09:39;9.00;99.90
3466;DHT22;1747;48.884;9.160;2024-02-14T08:12:06;9.10;99.90
3466;DHT22;1747;48.884;9.160;2024-02-14T08:14:36;9.10;99.90
3466;DHT22;1747;48.884;9.160;2024-02-14T08:17:06;9.10;99.90
3466;DHT22;1747;48.884;9.160;2024-02-14T08:19:36;9.20;99.90
3466;DHT22;1747;48.884;9.160;2024-02-14T08:22:07;9.30;99.90
3466;DHT22;1747;48.884;9.160;2024-02-14T08:24:40;9.30;99.90
3466;DHT22;1747;48.884;9.160;2024-02-14T08:27:09;9.30;99.90
3466;DHT22;1747;48.884;9.160;2024-02-14T08:29:38;9.40;99.90
3466;DHT22;1747;48.884;9.160;2024-02-14T08:32:12;9.40;99.90
3466;DHT22;1747;48.884;9.160;2024-02-14T08:34:40;9.50;99.90
3466;DHT22;1747;48.884;9.160;2024-02-14T08:37:08;9.50;99.90
3466;DHT22;1747;48.884;9.160;2024-02-14T08:39:43;9.60;99.90
3466;DHT22;1747;48.884;9.160;2024-02-14T08:42:11;9.70;99.90
3466;DHT22;1747;48.884;9.160;2024-02-14T08:44:46;9.80;99.90
3466;DHT22;1747;48.884;9.160;2024-02-14T08:47:18;9.90;99.90
3466;DHT22;1747;48.884;9.160;2024-02-14T08:49:56;10.00;99.90
3466;DHT22;1747;48.884;9.160;2024-02-14T08:52:24;10.20;99.90
3466;DHT22;1747;48.884;9.160;2024-02-14T08:54:55;10.30;99.90
3466;DHT22;1747;48.884;9.160;2024-02-14T08:57:26;10.40;99.90
3466;DHT22;1747;48.884;9.160;2024-02-14T08:59:54;10.50;99.90
3466;DHT22;1747;48.884;9.160;2024-02-14T09:02:21;10.60;99.90
3466;DHT22;1747;48.884;9.160;2024-02-14T09:04:51;10.70;99.90
3466;DHT22;1747;48.884;9.160;2024-02-14T09:07:17;10.70;99.90
3466;DHT22;1747;48.884;9.160;2024-02-14T09:09:44;10.70;99.90
3466;DHT22;1747;48.884;9.160;2024-02-14T09:12:13;10.70;99.90
3466;DHT22;1747;48.884;9.160;2024-02-14T09:14:40;10.70;99.90
3466;DHT22;1747;48.884;9.160;2024-02-14T09:17:07;10.80;99.90
3466;DHT22;1747;48.884;9.160;2024-02-14T09:19:35;10.80;99.90
3466;DHT22;1747;48.884;9.160;2024-02-14T09:22:03;10.90;99.90
3466;DHT22;1747;48.884;9.160;2024-02-14T09:24:32;10.90;99.90
3466;DHT22;1747;48.884;9.160;2024-02-14T09:26:59;11.00;99.90
3466;DHT22;1747;48.884;9.160;2024-02-14T09:29:29;11.10;99.90
3466;DHT22;1747;48.884;9.160;2024-02-14T09:31:56;11.10;99.90
3466;DHT22;1747;48.884;9.160;2024-02-14T09:34:23;11.20;99.90
3466;DHT22;1747;48.884;9.160;2024-02-14T09:36:51;11.30;99.90
3466;DHT22;1747;48.884;9.160;2024-02-14T09:39:19;11.40;99.90
3466;DHT22;1747;48.884;9.160;2024-02-14T09:41:51;11.50;99.90
3466;DHT22;1747;48.884;9.160;2024-02-14T09:44:20;11.60;99.90
3466;DHT22;1747;48.884;9.160;2024-02-14T09:46:50;11.60;99.90
3466;DHT22;1747;48.884;9.160;2024-02-14T09:49:17;11.70;99.90
3466;DHT22;1747;48.884;9.160;2024-02-14T09:51:46;11.80;99.90
3466;DHT22;1747;48.884;9.160;2024-02-14T09:54:16;11.90;99.90
3466;DHT22;1747;48.884;9.160;2024-02-14T09:56:48;12.00;99.90
3466;DHT22;1747;48.884;9.160;2024-02-14T09:59:19;12.00;99.90
3466;DHT22;1747;48.884;9.160;2024-02-14T10:01:47;12.00;99.90
3466;DHT22;1747;48.884;9.160;2024-02-14T10:04:17;12.10;99.90
3466;DHT22;1747;48.884;9.160;2024-02-14T10:06:46;12.00;99.90
3466;DHT22;1747;48.884;9.160;2024-02-14T10:09:19;12.10;99.90
3466;DHT22;1747;48.884;9.160;2024-02-14T10:11:46;12.30;99.90
3466;DHT22;1747;48.884;9.160;2024-02-14T10:14:13;12.40;99.90
3466;DHT22;1747;48.884;9.160;2024-02-14T10:16:40;12.40;99.90
3466;DHT22;1747;48.884;9.160;2024-02-14T10:19:14;12.40;99.90
3466;DHT22;1747;48.884;9.160;2024-02-14T10:21:43;12.40;99.90
3466;DHT22;1747;48.884;9.160;2024-02-14T10:24:11;12.50;99.90
3466;DHT22;1747;48.884;9.160;2024-02-14T10:26:40;12.60;99.90
3466;DHT22;1747;48.884;9.160;2024-02-14T10:29:08;12.80;99.90
3466;DHT22;1747;48.884;9.160;2024-02-14T10:31:37;12.90;99.90
3466;DHT22;1747;48.884;9.160;2024-02-14T10:34:04;13.10;99.90
3466;DHT22;1747;48.884;9.160;2024-02-14T10:36:37;13.20;99.90
3466;DHT22;1747;48.884;9.160;2024-02-14T10:39:11;13.30;99.90
3466;DHT22;1747;48.884;9.160;2024-02-14T10:41:43;13.40;99.90
3466;DHT22;1747;48.884;9.160;2024-02-14T10:44:19;13.40;99.90
3466;DHT22;1747;48.884;9.160;2024-02-14T10:47:00;13.50;99.90
3466;DHT22;1747;48.884;9.160;2024-02-14T10:49:31;13.60;99.90
3466;DHT22;1747;48.884;9.160;2024-02-14T10:51:59;13.60;99.90
3466;DHT22;1747;48.884;9.160;2024-02-14T10:54:32;13.60;99.90
3466;DHT22;1747;48.884;9.160;2024-02-14T10:57:04;13.70;99.90
3466;DHT22;1747;48.884;9.160;2024-02-14T10:59:38;13.80;99.90
3466;DHT22;1747;48.884;9.160;2024-02-14T11:02:07;13.90;99.90
3466;DHT22;1747;48.884;9.160;2024-02-14T11:04:34;14.00;99.90
3466;DHT22;1747;48.884;9.160;2024-02-14T11:07:02;14.00;99.90
3466;DHT22;1747;48.884;9.160;2024-02-14T11:09:36;14.20;99.90
3466;DHT22;1747;48.884;9.160;2024-02-14T11:12:07;14.20;99.90
3466;DHT22;1747;48.884;9.160;2024-02-14T11:14:35;14.10;99.90
3466;DHT22;1747;48.884;9.160;2024-02-14T11:17:04;14.00;99.90
3466;DHT22;1747;48.884;9.160;2024-02-14T11:19:35;13.90;99.90
3466;DHT22;1747;48.884;9.160;2024-02-14T11:22:11;13.80;99.90
3466;DHT22;1747;48.884;9.160;2024-02-14T11:24:45;13.80;99.90
3466;DHT22;1747;48.884;9.160;2024-02-14T11:27:12;13.80;99.90
3466;DHT22;1747;48.884;9.160;2024-02-14T11:29:40;13.80;99.90
3466;DHT22;1747;48.884;9.160;2024-02-14T11:32:08;13.70;99.90
3466;DHT22;1747;48.884;9.160;2024-02-14T11:34:35;13.70;99.90
3466;DHT22;1747;48.884;9.160;2024-02-14T11:37:02;13.70;99.90
3466;DHT22;1747;48.884;9.160;2024-02-14T11:39:32;13.70;99.90
3466;DHT22;1747;48.884;9.160;2024-02-14T11:42:00;13.60;99.90
3466;DHT22;1747;48.884;9.160;2024-02-14T11:44:28;13.60;99.90
3466;DHT22;1747;48.884;9.160;2024-02-14T11:46:54;13.60;99.90
3466;DHT22;1747;48.884;9.160;2024-02-14T11:49:22;13.50;99.90
3466;DHT22;1747;48.884;9.160;2024-02-14T11:51:49;13.40;99.90
3466;DHT22;1747;48.884;9.160;2024-02-14T11:54:16;13.50;99.90
3466;DHT22;1747;48.884;9.160;2024-02-14T11:56:46;13.50;99.90
3466;DHT22;1747;48.884;9.160;2024-02-14T11:59:16;13.50;99.90
3466;DHT22;1747;48.884;9.160;2024-02-14T12:01:46;13.60;99.90
3466;DHT22;1747;48.884;9.160;2024-02-14T12:04:15;13.70;99.90
3466;DHT22;1747;48.884;9.160;2024-02-14T12:06:45;13.70;99.90
3466;DHT22;1747;48.884;9.160;2024-02-14T12:09:12;13.80;99.90
3466;DHT22;1747;48.884;9.160;2024-02-14T12:11:40;13.90;99.90
3466;DHT22;1747;48.884;9.160;2024-02-14T12:14:09;13.90;99.90
3466;DHT22;1747;48.884;9.160;2024-02-14T12:16:38;13.90;99.90
3466;DHT22;1747;48.884;9.160;2024-02-14T12:19:06;13.80;99.90
3466;DHT22;1747;48.884;9.160;2024-02-14T12:21:35;13.80;99.90
3466;DHT22;1747;48.884;9.160;2024-02-14T12:24:04;14.00;99.90
3466;DHT22;1747;48.884;9.160;2024-02-14T12:26:40;14.10;99.90
3466;DHT22;1747;48.884;9.160;2024-02-14T12:29:11;14.40;99.90
3466;DHT22;1747;48.884;9.160;2024-02-14T12:31:40;14.80;99.90
3466;DHT22;1747;48.884;9.160;2024-02-14T12:34:11;15.10;99.90
3466;DHT22;1747;48.884;9.160;2024-02-14T12:36:38;15.30;99.90
3466;DHT22;1747;48.884;9.160;2024-02-14T12:39:05;15.50;99.90
3466;DHT22;1747;48.884;9.160;2024-02-14T12:41:34;15.70;99.90
3466;DHT22;1747;48.884;9.160;2024-02-14T12:44:05;15.80;99.90
3466;DHT22;1747;48.884;9.160;2024-02-14T12:46:32;15.90;99.90
3466;DHT22;1747;48.884;9.160;2024-02-14T12:49:00;16.10;99.90
3466;DHT22;1747;48.884;9.160;2024-02-14T12:51:29;16.30;99.90
3466;DHT22;1747;48.884;9.160;2024-02-14T12:53:56;16.50;99.90
3466;DHT22;1747;48.884;9.160;2024-02-14T12:56:23;16.50;99.90
3466;DHT22;1747;48.884;9.160;2024-02-14T12:58:50;16.70;99.90
3466;DHT22;1747;48.884;9.160;2024-02-14T13:01:17;16.80;99.90
3466;DHT22;1747;48.884;9.160;2024-02-14T13:03:44;16.80;99.90
3466;DHT22;1747;48.884;9.160;2024-02-14T13:06:13;16.90;99.90
3466;DHT22;1747;48.884;9.160;2024-02-14T13:08:41;17.00;99.90
3466;DHT22;1747;48.884;9.160;2024-02-14T13:11:08;17.00;99.90
3466;DHT22;1747;48.884;9.160;2024-02-14T13:13:35;16.90;99.90
3466;DHT22;1747;48.884;9.160;2024-02-14T13:16:02;16.80;99.90
3466;DHT22;1747;48.884;9.160;2024-02-14T13:18:31;16.70;99.90
3466;DHT22;1747;48.884;9.160;2024-02-14T13:20:58;16.60;99.90
3466;DHT22;1747;48.884;9.160;2024-02-14T13:23:28;16.50;99.90
3466;DHT22;1747;48.884;9.160;2024-02-14T13:25:56;16.40;99.90
3466;DHT22;1747;48.884;9.160;2024-02-14T13:28:25;16.30;99.90
3466;DHT22;1747;48.884;9.160;2024-02-14T13:30:52;16.30;99.90
3466;DHT22;1747;48.884;9.160;2024-02-14T13:33:19;16.20;99.90
3466;DHT22;1747;48.884;9.160;2024-02-14T13:35:47;16.20;99.90
3466;DHT22;1747;48.884;9.160;2024-02-14T13:38:14;16.20;99.90
3466;DHT22;1747;48.884;9.160;2024-02-14T13:40:44;16.20;99.90
3466;DHT22;1747;48.884;9.160;2024-02-14T13:43:11;16.30;99.90
3466;DHT22;1747;48.884;9.160;2024-02-14T13:45:42;16.30;99.90
3466;DHT22;1747;48.884;9.160;2024-02-14T13:48:09;16.40;99.90
3466;DHT22;1747;48.884;9.160;2024-02-14T13:50:37;16.50;99.90
3466;DHT22;1747;48.884;9.160;2024-02-14T13:53:04;16.60;99.90
3466;DHT22;1747;48.884;9.160;2024-02-14T13:55:31;16.50;99.90
3466;DHT22;1747;48.884;9.160;2024-02-14T13:57:59;16.70;99.90
3466;DHT22;1747;48.884;9.160;2024-02-14T14:00:26;16.90;99.90
3466;DHT22;1747;48.884;9.160;2024-02-14T14:02:53;16.80;99.90
3466;DHT22;1747;48.884;9.160;2024-02-14T14:05:20;16.70;99.90
3466;DHT22;1747;48.884;9.160;2024-02-14T14:07:47;16.70;99.90
3466;DHT22;1747;48.884;9.160;2024-02-14T14:10:14;16.60;99.90
3466;DHT22;1747;48.884;9.160;2024-02-14T14:12:42;16.60;99.90
3466;DHT22;1747;48.884;9.160;2024-02-14T14:15:10;16.50;99.90
3466;DHT22;1747;48.884;9.160;2024-02-14T14:17:37;16.50;99.90
3466;DHT22;1747;48.884;9.160;2024-02-14T14:20:05;16.50;99.90
3466;DHT22;1747;48.884;9.160;2024-02-14T14:22:33;16.60;99.90
3466;DHT22;1747;48.884;9.160;2024-02-14T14:25:00;16.40;99.90
3466;DHT22;1747;48.884;9.160;2024-02-14T14:27:28;16.20;99.90
3466;DHT22;1747;48.884;9.160;2024-02-14T14:29:55;16.10;99.90
3466;DHT22;1747;48.884;9.160;2024-02-14T14:32:23;16.10;99.90
3466;DHT22;1747;48.884;9.160;2024-02-14T14:34:50;15.90;99.90
3466;DHT22;1747;48.884;9.160;2024-02-14T14:37:16;15.90;99.90
3466;DHT22;1747;48.884;9.160;2024-02-14T14:39:43;15.80;99.90
3466;DHT22;1747;48.884;9.160;2024-02-14T14:42:10;15.80;99.90
3466;DHT22;1747;48.884;9.160;2024-02-14T14:44:37;15.80;99.90
3466;DHT22;1747;48.884;9.160;2024-02-14T14:47:05;15.70;99.90
3466;DHT22;1747;48.884;9.160;2024-02-14T14:49:33;15.60;99.90
3466;DHT22;1747;48.884;9.160;2024-02-14T14:52:00;15.60;99.90
3466;DHT22;1747;48.884;9.160;2024-02-14T14:54:30;15.60;99.90
3466;DHT22;1747;48.884;9.160;2024-02-14T14:56:57;15.70;99.90
3466;DHT22;1747;48.884;9.160;2024-02-14T14:59:23;15.70;99.90
3466;DHT22;1747;48.884;9.160;2024-02-14T15:01:50;15.60;99.90
3466;DHT22;1747;48.884;9.160;2024-02-14T15:04:19;15.60;99.90
3466;DHT22;1747;48.884;9.160;2024-02-14T15:06:47;15.50;99.90
3466;DHT22;1747;48.884;9.160;2024-02-14T15:09:16;15.20;99.90
3466;DHT22;1747;48.884;9.160;2024-02-14T15:11:43;15.20;99.90
3466;DHT22;1747;48.884;9.160;2024-02-14T15:14:13;15.10;99.90
3466;DHT22;1747;48.884;9.160;2024-02-14T15:16:40;15.30;99.90
3466;DHT22;1747;48.884;9.160;2024-02-14T15:19:07;15.30;99.90
3466;DHT22;1747;48.884;9.160;2024-02-14T15:21:34;15.50;99.90
3466;DHT22;1747;48.884;9.160;2024-02-14T15:24:03;15.50;99.90
3466;DHT22;1747;48.884;9.160;2024-02-14T15:26:30;15.40;99.90
3466;DHT22;1747;48.884;9.160;2024-02-14T15:29:05;15.40;99.90
3466;DHT22;1747;48.884;9.160;2024-02-14T15:31:46;15.50;99.90
3466;DHT22;1747;48.884;9.160;2024-02-14T15:34:31;15.50;99.90
3466;DHT22;1747;48.884;9.160;2024-02-14T15:36:58;15.50;99.90
3466;DHT22;1747;48.884;9.160;2024-02-14T15:39:27;15.40;99.90
3466;DHT22;1747;48.884;9.160;2024-02-14T15:41:55;15.50;99.90
3466;DHT22;1747;48.884;9.160;2024-02-14T15:44:22;15.40;99.90
3466;DHT22;1747;48.884;9.160;2024-02-14T15:46:49;15.30;99.90
3466;DHT22;1747;48.884;9.160;2024-02-14T15:49:16;15.20;99.90
3466;DHT22;1747;48.884;9.160;2024-02-14T15:51:43;15.20;99.90
3466;DHT22;1747;48.884;9.160;2024-02-14T15:54:11;15.10;99.90
3466;DHT22;1747;48.884;9.160;2024-02-14T15:56:41;15.10;99.90
3466;DHT22;1747;48.884;9.160;2024-02-14T15:59:07;15.00;99.90
3466;DHT22;1747;48.884;9.160;2024-02-14T16:01:34;14.90;99.90
3466;DHT22;1747;48.884;9.160;2024-02-14T16:04:03;14.90;99.90
3466;DHT22;1747;48.884;9.160;2024-02-14T16:06:30;14.90;99.90
3466;DHT22;1747;48.884;9.160;2024-02-14T16:09:00;14.80;99.90
3466;DHT22;1747;48.884;9.160;2024-02-14T16:11:29;14.70;99.90
3466;DHT22;1747;48.884;9.160;2024-02-14T16:13:58;14.60;99.90
3466;DHT22;1747;48.884;9.160;2024-02-14T16:16:27;14.60;99.90